Time;durP1;ratioP1;P1;durP2;ratioP2;P2;SDS_P1;SDS_P2;PMS_P1;PMS_P2;Temp;Humidity;BMP_temperature;BMP_pressure;BME280_temperature;BME280_humidity;BME280_pressure;Samples;Min_cycle;Max_cycle;Signal;HPM_P1;HPM_P2
2022/11/07 00:01:47;;;;;;;4.57;3.50;;;9.10;1.00;;;;;;4992200;28;20751;-85
2022/11/07 00:04:14;;;;;;;4.07;3.63;;;9.20;1.00;;;;;;5020676;28;20570;-85
2022/11/07 00:06:40;;;;;;;5.17;3.30;;;9.80;1.00;;;;;;5004680;28;20236;-85
2022/11/07 00:09:07;;;;;;;4.50;3.67;;;9.10;1.00;;;;;;4988066;28;20188;-85
2022/11/07 00:11:33;;;;;;;5.07;3.27;;;9.10;1.00;;;;;;4992514;28;20191;-84
2022/11/07 00:13:58;;;;;;;3.37;3.03;;;9.80;1.00;;;;;;4990894;28;20216;-85
2022/11/07 00:16:25;;;;;;;3.83;3.43;;;9.30;1.00;;;;;;5023049;28;20871;-84
2022/11/07 00:18:51;;;;;;;5.00;3.63;;;9.80;1.00;;;;;;4987559;28;20293;-85
2022/11/07 00:21:31;;;;;;;4.07;3.47;;;9.30;1.00;;;;;;5023495;28;20191;-86
2022/11/07 00:23:57;;;;;;;4.50;3.63;;;8.90;1.00;;;;;;4989895;28;20274;-85
2022/11/07 00:26:23;;;;;;;3.67;3.30;;;8.90;1.00;;;;;;4988870;28;20270;-85
2022/11/07 00:28:49;;;;;;;3.60;3.23;;;9.80;1.00;;;;;;4993598;28;20246;-89
2022/11/07 00:31:15;;;;;;;4.13;3.47;;;8.80;1.00;;;;;;4990482;28;20208;-86
2022/11/07 00:33:42;;;;;;;3.90;3.40;;;8.90;1.00;;;;;;4987783;28;20204;-88
2022/11/07 00:36:08;;;;;;;3.83;3.43;;;8.80;1.00;;;;;;4985942;28;20176;-85
2022/11/07 00:38:34;;;;;;;3.57;3.27;;;8.80;1.00;;;;;;4985637;28;20215;-88
2022/11/07 00:41:03;;;;;;;4.03;3.63;;;8.70;1.00;;;;;;4989471;28;20275;-87
2022/11/07 00:43:29;;;;;;;4.00;3.67;;;8.70;1.00;;;;;;5024940;28;20608;-86
2022/11/07 00:45:56;;;;;;;4.43;3.47;;;8.90;1.00;;;;;;4995357;28;20195;-85
2022/11/07 00:48:22;;;;;;;3.63;3.30;;;8.80;1.00;;;;;;5027734;28;20190;-86
2022/11/07 00:50:48;;;;;;;3.67;3.37;;;9.90;1.00;;;;;;4994154;28;20199;-87
2022/11/07 00:53:13;;;;;;;3.43;3.13;;;9.20;1.00;;;;;;4995652;28;20180;-84
2022/11/07 00:55:39;;;;;;;4.70;3.37;;;9.00;1.00;;;;;;4995229;28;20238;-85
2022/11/07 00:58:05;;;;;;;3.57;3.27;;;8.50;1.00;;;;;;4995105;28;20659;-86
2022/11/07 01:00:31;;;;;;;4.27;3.50;;;8.40;1.00;;;;;;4993779;28;20208;-85
2022/11/07 01:05:41;;;;;;;4.23;3.60;;;8.90;1.00;;;;;;4995775;28;20713;-86
2022/11/07 01:08:06;;;;;;;3.90;3.30;;;8.80;1.00;;;;;;4995225;28;20180;-87
2022/11/07 01:10:32;;;;;;;4.63;3.20;;;8.70;1.00;;;;;;4994921;28;20176;-85
2022/11/07 01:12:57;;;;;;;4.20;2.80;;;8.90;1.00;;;;;;4994612;28;20231;-85
2022/11/07 01:15:23;;;;;;;6.00;3.37;;;9.20;1.00;;;;;;4993766;28;20775;-84
2022/11/07 01:17:49;;;;;;;3.97;3.00;;;8.90;1.00;;;;;;4992713;28;20180;-87
2022/11/07 01:20:15;;;;;;;4.37;3.00;;;9.00;1.00;;;;;;4996282;28;20283;-85
2022/11/07 01:22:40;;;;;;;3.33;2.73;;;10.10;1.00;;;;;;4994240;28;20235;-85
2022/11/07 01:25:06;;;;;;;4.13;2.63;;;9.20;1.00;;;;;;4994036;28;20204;-85
2022/11/07 01:27:32;;;;;;;3.43;2.83;;;9.20;1.00;;;;;;4994549;28;20214;-85
2022/11/07 01:29:58;;;;;;;2.90;2.70;;;9.20;1.00;;;;;;4993782;28;20188;-85
2022/11/07 01:32:24;;;;;;;4.23;2.63;;;9.10;1.00;;;;;;4997572;28;20202;-84
2022/11/07 01:34:49;;;;;;;2.97;2.50;;;9.50;1.00;;;;;;4997075;28;20203;-86
2022/11/07 01:37:15;;;;;;;2.93;2.33;;;9.90;1.00;;;;;;5000084;28;20188;-85
2022/11/07 01:39:41;;;;;;;3.50;2.80;;;9.30;1.00;;;;;;4999192;28;20326;-85
2022/11/07 01:42:08;;;;;;;3.77;2.37;;;9.20;1.00;;;;;;5013624;28;20200;-84
2022/11/07 01:44:37;;;;;;;4.90;2.73;;;9.70;1.00;;;;;;4995702;28;20243;-85
2022/11/07 01:47:02;;;;;;;4.13;3.00;;;9.00;1.00;;;;;;5011595;28;20191;-84
2022/11/07 01:49:33;;;;;;;3.03;2.73;;;9.20;1.00;;;;;;5002452;28;20191;-87
2022/11/07 01:52:13;;;;;;;4.90;2.50;;;9.30;1.00;;;;;;5005679;28;20211;-87
2022/11/07 01:55:06;;;;;;;2.90;2.70;;;9.20;1.00;;;;;;5011285;28;20290;-87
2022/11/07 01:57:42;;;;;;;3.33;2.60;;;9.30;1.00;;;;;;5000687;28;20792;-86
2022/11/07 02:00:12;;;;;;;4.23;2.63;;;9.30;1.00;;;;;;5005611;28;20222;-85
2022/11/07 02:02:39;;;;;;;2.73;2.47;;;9.30;1.00;;;;;;5002968;28;20192;-87
2022/11/07 02:05:07;;;;;;;4.57;2.60;;;9.60;1.00;;;;;;4996494;28;20747;-86
2022/11/07 02:07:34;;;;;;;4.30;2.40;;;9.30;1.00;;;;;;4997311;28;20180;-86
2022/11/07 02:10:01;;;;;;;2.87;2.37;;;9.60;1.00;;;;;;4997024;28;20559;-85
2022/11/07 02:12:27;;;;;;;4.07;2.40;;;10.00;1.00;;;;;;4998941;28;20188;-84
2022/11/07 02:14:53;;;;;;;3.10;2.67;;;9.40;1.00;;;;;;4997287;28;20278;-86
2022/11/07 02:17:19;;;;;;;3.73;2.27;;;9.20;1.00;;;;;;4996853;28;20196;-84
2022/11/07 02:19:51;;;;;;;2.50;2.30;;;9.40;1.00;;;;;;5028725;28;20288;-85
2022/11/07 02:22:19;;;;;;;5.00;2.30;;;9.10;1.00;;;;;;4996020;28;20239;-86
2022/11/07 02:24:49;;;;;;;3.63;2.27;;;9.00;1.00;;;;;;5011217;28;20242;-84
2022/11/07 02:27:18;;;;;;;2.70;2.50;;;9.40;1.00;;;;;;4993154;28;20687;-85
2022/11/07 02:29:48;;;;;;;2.37;2.00;;;9.00;1.00;;;;;;4994914;28;20242;-86
2022/11/07 02:32:13;;;;;;;3.93;2.43;;;9.60;1.00;;;;;;4994822;28;20203;-86
2022/11/07 02:34:39;;;;;;;4.17;2.30;;;9.30;1.00;;;;;;4996190;28;20215;-84
2022/11/07 02:37:33;;;;;;;3.03;2.30;;;9.50;1.00;;;;;;5024604;28;20192;-84
2022/11/07 02:40:01;;;;;;;3.63;2.30;;;8.60;1.00;;;;;;4998549;28;20247;-84
2022/11/07 02:42:42;;;;;;;3.37;2.10;;;9.20;1.00;;;;;;4994766;28;20299;-85
2022/11/07 02:45:32;;;;;;;4.50;2.10;;;9.40;1.00;;;;;;4989595;28;20637;-85
2022/11/07 02:47:58;;;;;;;2.70;2.13;;;9.00;1.00;;;;;;5000453;28;20185;-85
2022/11/07 02:50:24;;;;;;;2.47;2.10;;;9.70;1.00;;;;;;4994336;28;20192;-85
2022/11/07 02:52:49;;;;;;;3.73;2.20;;;9.20;1.00;;;;;;4993060;28;20188;-85
2022/11/07 02:55:15;;;;;;;3.77;2.30;;;9.50;1.00;;;;;;4994545;28;20212;-85
2022/11/07 02:57:41;;;;;;;5.77;3.70;;;9.50;1.00;;;;;;4994960;28;20235;-87
2022/11/07 03:00:08;;;;;;;6.80;4.93;;;9.30;1.00;;;;;;4994951;28;20270;-86
2022/11/07 03:02:34;;;;;;;10.87;6.80;;;9.20;1.00;;;;;;4992130;28;20195;-85
2022/11/07 03:04:59;;;;;;;7.77;4.80;;;9.20;1.00;;;;;;4993761;28;20291;-85
2022/11/07 03:07:25;;;;;;;4.37;3.00;;;9.10;1.00;;;;;;4994555;28;20206;-85
2022/11/07 03:09:51;;;;;;;9.93;5.10;;;9.00;1.00;;;;;;4994195;28;20196;-85
2022/11/07 03:12:16;;;;;;;7.73;3.73;;;8.80;1.00;;;;;;4989869;28;20271;-85
2022/11/07 03:14:42;;;;;;;4.50;2.90;;;8.90;1.00;;;;;;4993344;28;20236;-87
2022/11/07 03:17:08;;;;;;;5.70;2.63;;;9.60;1.00;;;;;;4988865;28;20184;-85
2022/11/07 03:19:33;;;;;;;4.27;2.40;;;9.80;1.00;;;;;;5004975;28;20216;-85
2022/11/07 03:21:59;;;;;;;4.23;1.90;;;9.50;1.00;;;;;;5025447;28;20188;-87
2022/11/07 03:24:25;;;;;;;2.07;1.70;;;9.50;1.00;;;;;;5024008;28;20537;-88
2022/11/07 03:26:50;;;;;;;3.93;2.00;;;9.70;1.00;;;;;;4992851;28;20551;-86
2022/11/07 03:29:16;;;;;;;2.60;2.03;;;9.50;1.00;;;;;;5022459;28;20223;-86
2022/11/07 03:31:42;;;;;;;3.10;1.90;;;10.40;1.00;;;;;;4987993;28;20200;-86
2022/11/07 03:34:07;;;;;;;3.47;2.10;;;10.10;1.00;;;;;;4989093;28;21038;-86
2022/11/07 03:36:33;;;;;;;3.17;2.17;;;10.30;1.00;;;;;;4988456;28;20188;-86
2022/11/07 03:38:59;;;;;;;3.37;1.60;;;9.70;1.00;;;;;;4993402;28;20189;-87
2022/11/07 03:41:25;;;;;;;5.57;2.60;;;10.60;1.00;;;;;;4992357;28;20188;-86
2022/11/07 03:43:50;;;;;;;4.00;2.43;;;10.80;1.00;;;;;;4991366;28;20200;-86
2022/11/07 03:46:16;;;;;;;3.80;1.73;;;9.90;1.00;;;;;;4989505;28;20581;-86
2022/11/07 03:48:42;;;;;;;3.03;1.63;;;10.20;1.00;;;;;;5007349;28;20219;-86
2022/11/07 03:51:09;;;;;;;4.53;1.83;;;10.00;1.00;;;;;;4991331;28;20188;-88
2022/11/07 03:53:35;;;;;;;4.03;1.80;;;10.10;1.00;;;;;;4989846;28;20677;-87
2022/11/07 03:56:06;;;;;;;4.87;2.60;;;9.90;1.00;;;;;;4990206;28;20184;-86
2022/11/07 03:58:32;;;;;;;2.47;1.83;;;9.90;1.00;;;;;;4992004;28;20531;-87
2022/11/07 04:00:57;;;;;;;2.87;1.37;;;10.00;1.00;;;;;;5023076;28;20214;-87
2022/11/07 04:03:23;;;;;;;3.30;1.60;;;9.90;1.00;;;;;;4991447;28;20226;-87
2022/11/07 04:05:49;;;;;;;2.90;1.30;;;10.90;1.00;;;;;;4989756;28;20192;-88
2022/11/07 04:08:14;;;;;;;2.83;1.73;;;10.20;1.00;;;;;;4989463;28;20679;-86
2022/11/07 04:10:40;;;;;;;3.60;1.67;;;11.10;1.00;;;;;;4987765;28;20307;-87
2022/11/07 04:18:36;;;;;;;3.93;1.63;;;10.10;1.00;;;;;;4990685;28;20187;-86
2022/11/07 04:21:01;;;;;;;3.73;1.40;;;10.00;1.00;;;;;;5020899;28;20204;-86
2022/11/07 04:23:27;;;;;;;2.80;1.40;;;10.30;1.00;;;;;;4988937;28;20295;-87
2022/11/07 04:28:37;;;;;;;2.13;1.40;;;10.20;1.00;;;;;;4991133;28;20204;-87
2022/11/07 04:31:03;;;;;;;3.27;1.43;;;10.40;1.00;;;;;;4995872;28;20578;-86
2022/11/07 04:33:28;;;;;;;3.97;1.30;;;10.20;1.00;;;;;;4988538;28;20307;-86
2022/11/07 04:35:54;;;;;;;3.07;1.40;;;10.20;1.00;;;;;;4988637;28;20223;-87
2022/11/07 04:38:20;;;;;;;1.87;1.40;;;10.90;1.00;;;;;;4987710;28;20191;-86
2022/11/07 04:40:52;;;;;;;2.27;1.30;;;10.40;1.00;;;;;;4989669;28;20200;-87
2022/11/07 04:43:17;;;;;;;2.37;1.40;;;10.70;1.00;;;;;;4993906;28;20294;-87
2022/11/07 04:45:43;;;;;;;4.03;1.20;;;10.50;1.00;;;;;;5003957;28;20296;-87
2022/11/07 04:48:11;;;;;;;2.20;1.30;;;10.50;1.00;;;;;;4990577;28;20184;-86
2022/11/07 04:50:37;;;;;;;4.67;1.60;;;9.80;1.00;;;;;;4987052;28;20177;-87
2022/11/07 04:53:03;;;;;;;3.33;1.47;;;9.80;1.00;;;;;;5007215;28;20187;-86
2022/11/07 04:55:32;;;;;;;2.03;1.40;;;10.10;1.00;;;;;;4990719;28;20195;-87
2022/11/07 04:57:57;;;;;;;2.47;1.23;;;10.20;1.00;;;;;;4988721;28;20238;-87
2022/11/07 05:00:23;;;;;;;2.40;1.23;;;10.20;1.00;;;;;;4987764;28;20650;-87
2022/11/07 05:02:49;;;;;;;2.93;1.40;;;9.80;1.00;;;;;;4997930;28;20195;-86
2022/11/07 05:05:16;;;;;;;2.93;1.43;;;9.50;1.00;;;;;;4986156;28;20562;-86
2022/11/07 05:07:43;;;;;;;1.80;1.30;;;9.40;1.00;;;;;;4989724;28;20693;-87
2022/11/07 05:10:25;;;;;;;2.23;1.50;;;9.50;1.00;;;;;;4988275;28;20721;-87
2022/11/07 05:12:52;;;;;;;4.37;1.60;;;9.60;1.00;;;;;;5003275;28;20192;-86
2022/11/07 05:15:18;;;;;;;2.80;1.73;;;9.70;1.00;;;;;;4988231;28;20222;-87
2022/11/07 05:17:44;;;;;;;4.10;1.73;;;9.70;1.00;;;;;;4987072;28;20188;-87
2022/11/07 05:20:29;;;;;;;2.13;1.33;;;9.80;1.00;;;;;;4987089;28;20210;-87
2022/11/07 05:23:11;;;;;;;3.47;1.57;;;9.80;1.00;;;;;;5018984;28;20674;-86
2022/11/07 05:25:38;;;;;;;2.77;1.50;;;9.80;1.00;;;;;;4985788;28;20684;-86
2022/11/07 05:28:05;;;;;;;1.83;1.20;;;10.20;1.00;;;;;;4985515;28;20226;-87
2022/11/07 05:30:30;;;;;;;3.53;2.07;;;10.30;1.00;;;;;;4985585;28;20205;-87
2022/11/07 05:32:56;;;;;;;2.87;1.33;;;10.50;1.00;;;;;;5019068;28;20194;-87
2022/11/07 05:35:22;;;;;;;3.60;2.20;;;10.80;1.00;;;;;;5018936;28;20615;-87
2022/11/07 05:37:48;;;;;;;3.63;1.20;;;9.90;1.00;;;;;;5019318;28;20188;-87
2022/11/07 05:40:13;;;;;;;2.47;1.67;;;10.00;1.00;;;;;;4987810;28;20204;-87
2022/11/07 05:42:39;;;;;;;2.40;1.13;;;9.70;1.00;;;;;;4986806;28;20220;-86
2022/11/07 05:45:06;;;;;;;2.93;1.33;;;10.00;1.00;;;;;;5017822;28;20208;-86
2022/11/07 05:47:31;;;;;;;3.23;1.30;;;9.60;1.00;;;;;;4986667;28;20283;-87
2022/11/07 05:49:57;;;;;;;2.53;1.40;;;9.60;1.00;;;;;;4985942;28;20295;-86
2022/11/07 05:52:22;;;;;;;2.00;1.30;;;9.90;1.00;;;;;;4986653;28;20196;-86
2022/11/07 05:54:48;;;;;;;2.37;1.20;;;10.40;1.00;;;;;;4984129;28;20211;-86
2022/11/07 05:57:14;;;;;;;2.23;1.20;;;9.70;1.00;;;;;;4985408;28;20193;-85
2022/11/07 05:59:39;;;;;;;1.77;1.30;;;10.30;1.00;;;;;;5017690;28;20254;-86
2022/11/07 06:02:05;;;;;;;3.60;1.40;;;9.50;1.00;;;;;;4986829;28;20187;-86
2022/11/07 06:04:30;;;;;;;2.43;1.20;;;10.40;1.00;;;;;;4984567;28;20229;-87
2022/11/07 06:06:56;;;;;;;1.93;1.13;;;9.80;1.00;;;;;;4984619;28;20266;-86
2022/11/07 06:09:21;;;;;;;3.50;1.10;;;9.30;1.00;;;;;;4985422;28;20279;-87
2022/11/07 06:11:47;;;;;;;3.60;1.27;;;9.50;1.00;;;;;;4986850;28;20184;-86
2022/11/07 06:14:13;;;;;;;2.37;1.10;;;9.40;1.00;;;;;;4989570;28;20266;-86
2022/11/07 06:16:38;;;;;;;2.40;1.07;;;9.30;1.00;;;;;;5023202;28;20185;-86
2022/11/07 06:19:04;;;;;;;2.27;1.27;;;9.50;1.00;;;;;;4991256;28;20200;-87
2022/11/07 06:21:30;;;;;;;3.93;1.30;;;9.20;1.00;;;;;;4989544;28;20188;-86
2022/11/07 06:23:57;;;;;;;3.43;1.20;;;9.20;1.00;;;;;;4989515;28;20870;-86
2022/11/07 06:26:22;;;;;;;2.03;1.30;;;9.10;1.00;;;;;;5021400;28;20305;-86
2022/11/07 06:28:48;;;;;;;2.07;1.37;;;10.20;1.00;;;;;;4989791;28;20204;-87
2022/11/07 06:31:14;;;;;;;4.03;1.27;;;9.60;1.00;;;;;;4989415;28;20204;-86
2022/11/07 06:33:39;;;;;;;2.60;1.40;;;9.00;1.00;;;;;;5021459;28;20204;-87
2022/11/07 06:36:10;;;;;;;1.73;1.10;;;9.00;1.00;;;;;;4990338;28;20187;-86
2022/11/07 06:38:37;;;;;;;3.33;1.20;;;8.90;1.00;;;;;;5019989;28;20192;-86
2022/11/07 06:41:12;;;;;;;2.27;1.30;;;9.70;1.00;;;;;;5021798;28;20231;-86
2022/11/07 06:43:38;;;;;;;3.53;1.17;;;8.90;1.00;;;;;;5021695;28;20180;-87
2022/11/07 06:46:08;;;;;;;3.17;1.30;;;9.00;1.00;;;;;;4984499;28;20247;-87
2022/11/07 06:48:33;;;;;;;2.27;1.10;;;8.90;1.00;;;;;;4998910;28;20184;-86
2022/11/07 06:51:00;;;;;;;1.97;1.20;;;9.50;1.00;;;;;;4998007;28;20200;-88
2022/11/07 06:53:32;;;;;;;2.47;1.20;;;9.10;1.00;;;;;;4997754;28;20224;-86
2022/11/07 06:56:02;;;;;;;3.33;1.13;;;9.20;1.00;;;;;;4993066;28;20189;-86
2022/11/07 06:58:30;;;;;;;5.03;1.40;;;9.10;1.00;;;;;;4991699;28;20322;-86
2022/11/07 07:01:08;;;;;;;3.37;1.20;;;9.10;1.00;;;;;;4994375;28;20693;-85
2022/11/07 07:03:34;;;;;;;3.73;1.20;;;9.00;1.00;;;;;;4994906;28;20946;-86
2022/11/07 07:06:05;;;;;;;2.10;1.17;;;9.20;1.00;;;;;;4991291;28;20249;-87
2022/11/07 07:08:31;;;;;;;3.13;1.20;;;9.00;1.00;;;;;;4995713;28;20176;-85
2022/11/07 07:11:02;;;;;;;4.87;1.60;;;9.10;1.00;;;;;;4995169;28;20192;-86
2022/11/07 07:13:28;;;;;;;4.70;1.70;;;9.40;1.00;;;;;;5002475;28;20192;-87
2022/11/07 07:15:55;;;;;;;2.13;1.30;;;8.90;1.00;;;;;;4992280;28;20188;-85
2022/11/07 07:18:22;;;;;;;2.30;1.37;;;9.30;1.00;;;;;;4999691;28;20196;-87
2022/11/07 07:20:49;;;;;;;2.17;1.10;;;9.40;1.00;;;;;;4992912;28;20212;-86
2022/11/07 07:23:15;;;;;;;2.73;1.10;;;9.50;1.00;;;;;;4989399;28;20703;-85
2022/11/07 07:25:41;;;;;;;2.60;1.27;;;9.40;1.00;;;;;;4986844;28;20258;-85
2022/11/07 07:28:06;;;;;;;2.20;1.37;;;9.40;1.00;;;;;;4995027;28;20184;-85
2022/11/07 07:30:32;;;;;;;2.47;1.40;;;10.40;1.00;;;;;;4991066;28;20227;-85
2022/11/07 07:32:58;;;;;;;2.90;1.50;;;9.60;1.00;;;;;;4995067;28;20672;-85
2022/11/07 07:35:23;;;;;;;5.10;1.40;;;10.00;1.00;;;;;;4987943;28;20204;-87
2022/11/07 07:37:52;;;;;;;2.70;1.10;;;9.80;1.00;;;;;;4993476;28;20188;-85
2022/11/07 07:40:39;;;;;;;2.77;1.27;;;10.10;1.00;;;;;;4994128;28;20582;-86
2022/11/07 07:43:05;;;;;;;6.07;1.70;;;9.70;1.00;;;;;;4993372;28;20196;-84
2022/11/07 07:45:31;;;;;;;1.83;1.20;;;9.70;1.00;;;;;;4991050;28;20238;-85
2022/11/07 07:48:01;;;;;;;1.73;1.03;;;9.60;1.00;;;;;;4997533;28;20185;-84
2022/11/07 07:50:26;;;;;;;2.80;1.20;;;9.50;1.00;;;;;;5015288;28;20675;-85
2022/11/07 07:52:57;;;;;;;4.87;1.50;;;9.60;1.00;;;;;;4983486;28;20195;-85
2022/11/07 07:55:23;;;;;;;2.83;1.23;;;9.60;1.00;;;;;;5017294;28;20220;-88
2022/11/07 07:57:48;;;;;;;3.03;1.20;;;9.60;1.00;;;;;;4988070;28;20602;-85
2022/11/07 08:00:14;;;;;;;4.80;1.50;;;9.60;1.00;;;;;;4988285;28;20219;-87
2022/11/07 08:02:43;;;;;;;3.37;1.30;;;9.70;1.00;;;;;;4985859;28;20207;-86
2022/11/07 08:05:10;;;;;;;5.20;1.40;;;9.80;1.00;;;;;;4984992;28;20209;-86
2022/11/07 08:07:51;;;;;;;2.77;1.23;;;10.00;1.00;;;;;;4986141;28;20196;-85
2022/11/07 08:10:18;;;;;;;2.03;1.27;;;10.10;1.00;;;;;;4992510;28;20198;-87
2022/11/07 08:12:45;;;;;;;2.57;1.27;;;10.30;1.00;;;;;;5025523;28;20192;-86
2022/11/07 08:15:13;;;;;;;2.07;1.30;;;10.70;1.00;;;;;;4992525;28;20254;-86
2022/11/07 08:17:39;;;;;;;2.93;1.40;;;10.40;1.00;;;;;;4992832;28;20692;-85
2022/11/07 08:20:08;;;;;;;3.00;1.50;;;10.30;1.00;;;;;;4992123;28;20277;-87
2022/11/07 08:22:34;;;;;;;3.23;1.33;;;10.30;1.00;;;;;;4991964;28;20197;-85
2022/11/07 08:25:00;;;;;;;5.97;1.70;;;10.50;1.00;;;;;;4992527;28;20205;-86
2022/11/07 08:27:26;;;;;;;2.97;1.40;;;10.60;1.00;;;;;;4993068;28;20179;-86
2022/11/07 08:29:51;;;;;;;2.67;1.50;;;10.70;1.00;;;;;;4986493;28;20740;-86
2022/11/07 08:32:17;;;;;;;2.57;1.63;;;10.70;1.00;;;;;;5005025;28;20295;-86
2022/11/07 08:34:42;;;;;;;2.60;1.10;;;10.80;1.00;;;;;;4992164;28;20235;-86
2022/11/07 08:37:08;;;;;;;3.27;1.20;;;11.00;1.00;;;;;;5019967;28;20640;-86
2022/11/07 08:39:33;;;;;;;3.83;1.20;;;11.00;1.00;;;;;;4992568;28;20255;-86
2022/11/07 08:41:59;;;;;;;3.83;1.47;;;11.00;1.00;;;;;;4992031;28;20189;-87
2022/11/07 08:44:25;;;;;;;3.67;1.27;;;11.00;1.00;;;;;;4991638;28;20230;-86
2022/11/07 08:46:50;;;;;;;4.60;1.50;;;11.10;1.00;;;;;;4977410;28;20199;-85
2022/11/07 08:49:16;;;;;;;3.60;1.43;;;11.10;1.00;;;;;;5013128;28;20180;-85
2022/11/07 08:51:41;;;;;;;2.63;1.30;;;11.20;1.00;;;;;;4980703;28;20652;-84
2022/11/07 08:54:07;;;;;;;3.30;1.53;;;11.80;1.00;;;;;;5009564;28;20239;-81
2022/11/07 08:56:33;;;;;;;2.10;1.40;;;11.40;1.00;;;;;;4979533;28;20180;-80
2022/11/07 08:59:00;;;;;;;4.67;1.20;;;11.40;1.00;;;;;;4985369;28;20232;-81
2022/11/07 09:01:25;;;;;;;4.03;1.40;;;11.60;1.00;;;;;;5012622;28;20293;-83
2022/11/07 09:03:51;;;;;;;2.50;1.10;;;11.70;1.00;;;;;;4983989;28;20303;-82
2022/11/07 09:06:17;;;;;;;2.83;1.30;;;11.90;1.00;;;;;;4982536;28;20573;-86
2022/11/07 09:08:43;;;;;;;4.63;1.53;;;11.90;1.00;;;;;;4980631;28;20192;-83
2022/11/07 09:11:09;;;;;;;3.10;1.10;;;12.00;1.00;;;;;;4985672;28;20822;-86
2022/11/07 09:13:35;;;;;;;3.58;1.38;;;12.00;1.00;;;;;;4982230;28;20215;-87
2022/11/07 09:16:03;;;;;;;4.22;1.58;;;11.90;1.00;;;;;;5000111;28;20185;-86
2022/11/07 09:18:30;;;;;;;4.72;1.48;;;12.10;1.00;;;;;;5015322;28;20683;-87
2022/11/07 09:20:57;;;;;;;3.75;1.60;;;12.20;1.00;;;;;;4981983;28;20238;-86
2022/11/07 09:23:22;;;;;;;3.78;1.33;;;12.30;1.00;;;;;;4981460;28;20188;-86
2022/11/07 09:25:48;;;;;;;2.00;1.10;;;12.40;1.00;;;;;;4980919;28;20184;-86
2022/11/07 09:28:14;;;;;;;2.25;1.30;;;12.40;1.00;;;;;;5008786;28;20238;-87
2022/11/07 09:30:40;;;;;;;2.33;1.10;;;12.40;1.00;;;;;;5013859;28;20216;-90
2022/11/07 09:33:06;;;;;;;4.80;1.57;;;12.40;1.00;;;;;;4980401;28;20199;-84
2022/11/07 09:35:31;;;;;;;4.32;1.40;;;12.40;1.00;;;;;;4999941;28;20205;-83
2022/11/07 09:37:57;;;;;;;4.63;1.25;;;12.30;1.00;;;;;;4985336;28;20280;-79
2022/11/07 09:40:39;;;;;;;3.05;1.50;;;12.40;1.00;;;;;;4985405;28;20636;-81
2022/11/07 09:43:19;;;;;;;4.10;1.50;;;12.30;1.00;;;;;;4992089;28;20173;-82
2022/11/07 09:46:13;;;;;;;4.70;1.83;;;12.40;1.00;;;;;;4996835;28;20185;-81
2022/11/07 09:48:46;;;;;;;6.53;1.63;;;12.50;1.00;;;;;;4973199;28;20278;-82
2022/11/07 09:51:19;;;;;;;3.67;1.50;;;12.50;1.00;;;;;;5016706;28;20216;-82
2022/11/07 09:53:51;;;;;;;3.17;1.48;;;12.70;1.00;;;;;;4986438;28;20208;-81
2022/11/07 09:56:17;;;;;;;3.92;1.30;;;12.80;1.00;;;;;;4983688;28;20431;-80
2022/11/07 09:58:50;;;;;;;2.10;1.30;;;13.10;1.00;;;;;;4986162;28;20732;-83
2022/11/07 10:01:18;;;;;;;4.35;1.40;;;12.90;1.00;;;;;;4985643;28;20327;-80
2022/11/07 10:03:44;;;;;;;3.45;1.40;;;12.90;1.00;;;;;;5018830;28;20204;-82
2022/11/07 10:06:26;;;;;;;4.28;1.60;;;13.00;1.00;;;;;;4987458;28;20237;-84
2022/11/07 10:09:14;;;;;;;3.55;1.65;;;13.00;1.00;;;;;;4987564;28;20176;-83
2022/11/07 10:11:55;;;;;;;2.05;1.10;;;13.00;1.00;;;;;;4989796;28;20184;-85
2022/11/07 10:14:43;;;;;;;3.20;1.48;;;12.90;1.00;;;;;;4989041;28;20204;-81
2022/11/07 10:17:24;;;;;;;3.90;1.50;;;12.90;1.00;;;;;;5002224;28;20184;-83
2022/11/07 10:20:26;;;;;;;3.78;2.00;;;12.90;1.00;;;;;;5018454;28;20251;-83
2022/11/07 10:23:16;;;;;;;3.67;1.60;;;12.90;1.00;;;;;;4985865;28;20271;-83
2022/11/07 10:25:57;;;;;;;4.82;1.98;;;12.90;1.00;;;;;;4987009;28;20200;-83
2022/11/07 10:28:24;;;;;;;5.97;2.00;;;13.00;1.00;;;;;;4986058;28;20184;-83
2022/11/07 10:30:51;;;;;;;19.80;11.13;;;12.90;1.00;;;;;;4985856;28;20611;-84
2022/11/07 10:33:38;;;;;;;28.45;16.05;;;13.00;1.00;;;;;;4987547;28;20203;-83
2022/11/07 10:36:25;;;;;;;12.70;10.18;;;12.90;1.00;;;;;;5001651;28;20185;-81
2022/11/07 10:38:51;;;;;;;8.52;5.88;;;12.90;1.00;;;;;;4988253;28;20271;-82
2022/11/07 10:41:22;;;;;;;7.70;6.82;;;13.00;1.00;;;;;;4989064;28;20323;-82
2022/11/07 10:44:10;;;;;;;6.38;3.40;;;13.00;1.00;;;;;;4987549;28;20200;-81
2022/11/07 10:46:41;;;;;;;4.88;1.75;;;13.00;1.00;;;;;;5019946;28;20201;-80
2022/11/07 10:49:33;;;;;;;5.72;2.58;;;13.00;1.00;;;;;;4995069;28;20188;-81
2022/11/07 10:52:08;;;;;;;4.53;2.25;;;13.10;1.00;;;;;;4984996;28;20189;-81
2022/11/07 10:54:34;;;;;;;3.90;1.70;;;13.20;1.00;;;;;;4984928;28;20204;-80
2022/11/07 10:57:02;;;;;;;5.03;2.47;;;13.20;1.00;;;;;;4987599;28;20710;-82
2022/11/07 10:59:30;;;;;;;5.20;1.50;;;13.20;1.00;;;;;;4986267;28;20204;-80
2022/11/07 11:01:58;;;;;;;4.18;1.70;;;13.20;1.00;;;;;;4988680;28;20293;-80
2022/11/07 11:04:27;;;;;;;4.65;1.52;;;13.30;1.00;;;;;;4988361;28;20215;-82
2022/11/07 11:07:02;;;;;;;3.95;1.77;;;13.30;1.00;;;;;;4987776;28;20172;-83
2022/11/07 11:09:32;;;;;;;4.90;1.40;;;13.30;1.00;;;;;;4988327;28;20188;-81
2022/11/07 11:12:04;;;;;;;4.65;2.00;;;13.30;1.00;;;;;;4990560;28;20195;-81
2022/11/07 11:14:30;;;;;;;3.83;1.33;;;13.40;1.00;;;;;;4990978;28;20213;-81
2022/11/07 11:16:56;;;;;;;5.65;1.58;;;13.50;1.00;;;;;;4989430;28;20176;-81
2022/11/07 11:19:32;;;;;;;7.25;1.60;;;13.80;1.00;;;;;;4988377;28;20223;-81
2022/11/07 11:21:58;;;;;;;4.25;1.42;;;13.70;1.00;;;;;;4976096;28;20184;-81
2022/11/07 11:24:30;;;;;;;4.63;1.73;;;13.70;1.00;;;;;;4985659;28;20557;-83
2022/11/07 11:27:18;;;;;;;16.23;14.02;;;13.70;1.00;;;;;;4986093;28;20183;-82
2022/11/07 11:30:13;;;;;;;4.47;2.13;;;13.80;1.00;;;;;;5018872;28;20271;-81
2022/11/07 11:32:51;;;;;;;4.97;1.60;;;13.80;1.00;;;;;;4993420;28;20331;-80
2022/11/07 11:35:17;;;;;;;3.80;1.40;;;13.80;1.00;;;;;;5001778;28;20208;-82
2022/11/07 11:37:50;;;;;;;4.47;1.60;;;13.60;1.00;;;;;;4987750;28;20184;-82
2022/11/07 11:40:19;;;;;;;4.57;1.55;;;13.50;1.00;;;;;;5015485;28;20465;-81
2022/11/07 11:42:59;;;;;;;3.60;1.90;;;13.40;1.00;;;;;;4986225;28;20207;-82
2022/11/07 11:46:02;;;;;;;2.63;1.55;;;13.30;1.00;;;;;;4999943;28;20204;-82
2022/11/07 11:48:52;;;;;;;6.97;3.33;;;13.40;1.00;;;;;;4999106;28;20184;-80
2022/11/07 11:51:42;;;;;;;3.28;2.03;;;13.40;1.00;;;;;;4982744;28;20219;-82
2022/11/07 11:54:14;;;;;;;3.85;2.20;;;13.50;1.00;;;;;;5016513;28;20251;-82
2022/11/07 11:56:53;;;;;;;4.97;2.78;;;13.60;1.00;;;;;;5016697;28;20664;-83
2022/11/07 11:59:31;;;;;;;4.13;2.10;;;13.60;1.00;;;;;;5001300;28;20203;-83
2022/11/07 12:02:28;;;;;;;6.13;2.10;;;13.60;1.00;;;;;;4994622;28;20184;-82
2022/11/07 12:05:16;;;;;;;5.78;1.90;;;13.60;1.00;;;;;;4988423;28;20204;-83
2022/11/07 12:08:03;;;;;;;2.85;1.30;;;13.60;1.00;;;;;;4988970;28;20187;-82
2022/11/07 12:10:38;;;;;;;6.57;4.50;;;13.80;1.00;;;;;;4989609;28;20242;-85
2022/11/07 12:13:15;;;;;;;5.60;3.60;;;13.90;1.00;;;;;;5004790;28;20407;-84
2022/11/07 12:16:02;;;;;;;5.78;3.10;;;14.00;1.00;;;;;;4987001;28;20200;-83
2022/11/07 12:18:53;;;;;;;3.83;2.35;;;14.10;1.00;;;;;;4987190;28;20295;-80
2022/11/07 12:21:22;;;;;;;4.10;1.77;;;14.00;1.00;;;;;;4982917;28;20239;-81
2022/11/07 12:23:58;;;;;;;4.13;2.13;;;14.10;1.00;;;;;;5002229;28;20204;-81
2022/11/07 12:26:34;;;;;;;4.55;1.67;;;14.30;1.00;;;;;;4994898;28;20662;-82
2022/11/07 12:29:29;;;;;;;4.20;1.60;;;14.40;1.00;;;;;;4987274;28;20180;-80
2022/11/07 12:32:04;;;;;;;3.67;2.13;;;14.50;1.00;;;;;;4994911;28;20239;-81
2022/11/07 12:35:04;;;;;;;3.67;1.90;;;14.70;1.00;;;;;;4992821;28;20223;-81
2022/11/07 12:37:32;;;;;;;5.25;1.52;;;14.80;1.00;;;;;;4985595;28;20181;-81
2022/11/07 12:40:10;;;;;;;4.78;4.10;;;15.00;1.00;;;;;;4984148;28;20647;-81
2022/11/07 12:43:03;;;;;;;3.90;2.10;;;15.20;1.00;;;;;;5014840;28;20663;-81
2022/11/07 12:46:08;;;;;;;6.80;1.80;;;15.20;1.00;;;;;;4982031;28;20763;-82
2022/11/07 12:49:11;;;;;;;3.22;1.70;;;15.10;1.00;;;;;;4969319;28;20235;-82
2022/11/07 12:51:44;;;;;;;3.42;1.55;;;15.20;1.00;;;;;;4993727;28;20451;-82
2022/11/07 12:54:21;;;;;;;3.63;1.63;;;15.20;1.00;;;;;;4984868;28;20247;-82
2022/11/07 12:56:48;;;;;;;2.88;1.75;;;15.40;1.00;;;;;;4988466;28;20180;-83
2022/11/07 12:59:22;;;;;;;2.95;1.67;;;15.40;1.00;;;;;;5014966;28;20231;-83
2022/11/07 13:01:57;;;;;;;5.32;1.60;;;15.40;1.00;;;;;;4984172;28;20180;-82
2022/11/07 13:04:56;;;;;;;4.35;1.80;;;15.40;1.00;;;;;;4983506;28;20243;-80
2022/11/07 13:07:47;;;;;;;3.53;2.17;;;15.30;1.00;;;;;;4983604;28;20660;-83
2022/11/07 13:10:23;;;;;;;2.97;1.95;;;15.10;1.00;;;;;;4983885;28;20188;-81
2022/11/07 13:13:03;;;;;;;3.72;1.25;;;15.10;1.00;;;;;;5015053;28;20585;-80
2022/11/07 13:15:30;;;;;;;3.65;1.20;;;15.20;1.00;;;;;;4982930;28;20207;-81
2022/11/07 13:17:55;;;;;;;3.83;1.90;;;15.20;1.00;;;;;;4983124;28;20282;-81
2022/11/07 13:20:21;;;;;;;5.50;1.75;;;15.10;1.00;;;;;;4984029;28;20639;-80
2022/11/07 13:22:48;;;;;;;2.95;1.60;;;15.00;1.00;;;;;;5003118;28;20180;-81
2022/11/07 13:25:14;;;;;;;4.93;1.45;;;14.80;1.00;;;;;;4985963;28;20291;-81
2022/11/07 13:27:45;;;;;;;4.55;1.50;;;14.80;1.00;;;;;;4988293;28;20267;-85
2022/11/07 13:30:14;;;;;;;3.63;1.60;;;14.70;1.00;;;;;;4984297;28;20470;-85